Time;durP1;ratioP1;P1;durP2;ratioP2;P2;SDS_P1;SDS_P2;PMS_P1;PMS_P2;Temp;Humidity;BMP_temperature;BMP_pressure;BME280_temperature;BME280_humidity;BME280_pressure;Samples;Min_cycle;Max_cycle;Signal;HPM_P1;HPM_P2
2023/06/07 00:01:54;;;;;;;2.78;2.03;;;;;;;27.48;34.98;101941.78;5004701;28;96761;-74
2023/06/07 00:04:20;;;;;;;2.25;2.00;;;;;;;27.47;34.93;101942.84;5004844;28;102752;-74
2023/06/07 00:06:47;;;;;;;3.47;1.98;;;;;;;27.47;34.83;101945.59;5004530;28;100132;-74
2023/06/07 00:09:14;;;;;;;4.25;2.40;;;;;;;27.46;35.00;101943.88;5005007;28;96934;-74
2023/06/07 00:11:42;;;;;;;2.45;2.08;;;;;;;27.46;35.08;101933.69;5003077;28;97786;-74
2023/06/07 00:14:09;;;;;;;2.22;2.03;;;;;;;27.47;34.92;101937.31;5004600;28;97402;-74
2023/06/07 00:16:35;;;;;;;3.42;2.30;;;;;;;27.45;34.74;101940.25;5003569;28;98506;-74
2023/06/07 00:19:06;;;;;;;2.75;2.05;;;;;;;27.46;34.85;101939.22;5005965;28;97423;-74
2023/06/07 00:21:32;;;;;;;3.20;2.00;;;;;;;27.45;34.74;101943.03;5007670;28;96935;-73
2023/06/07 00:23:59;;;;;;;2.13;1.90;;;;;;;27.46;34.95;101943.88;5007544;28;98415;-74
2023/06/07 00:26:25;;;;;;;2.97;2.10;;;;;;;27.45;34.71;101943.03;5007511;28;97311;-74
2023/06/07 00:28:53;;;;;;;2.50;1.92;;;;;;;27.46;34.91;101941.13;5005608;28;97312;-74
2023/06/07 00:31:19;;;;;;;2.70;2.20;;;;;;;27.45;34.90;101940.25;5005469;28;97070;-74
2023/06/07 00:33:46;;;;;;;2.25;2.00;;;;;;;27.45;34.70;101942.16;5005987;28;97298;-74
2023/06/07 00:36:12;;;;;;;2.85;2.17;;;;;;;27.44;34.88;101944.06;5004920;28;99209;-74
2023/06/07 00:38:40;;;;;;;2.92;2.05;;;;;;;27.45;34.95;101954.06;5005328;28;97402;-74
2023/06/07 00:41:06;;;;;;;2.75;1.98;;;;;;;27.45;35.01;101947.69;5004727;28;97245;-73
2023/06/07 00:43:33;;;;;;;2.42;1.80;;;;;;;27.45;35.02;101948.53;5005645;28;97077;-74
2023/06/07 00:46:00;;;;;;;2.90;2.30;;;;;;;27.44;35.01;101938.56;5007474;28;97084;-74
2023/06/07 00:48:27;;;;;;;2.80;2.15;;;;;;;27.44;34.94;101934.94;5007097;28;97004;-74
2023/06/07 00:50:55;;;;;;;2.42;2.13;;;;;;;27.43;35.00;101933.22;5005558;28;97352;-74
2023/06/07 00:53:22;;;;;;;2.00;1.70;;;;;;;27.44;34.90;101940.47;4990916;28;96916;-74
2023/06/07 00:55:48;;;;;;;2.58;2.05;;;;;;;27.44;34.94;101937.69;5007799;28;97433;-74
2023/06/07 00:58:15;;;;;;;2.30;1.95;;;;;;;27.44;34.97;101932.19;5005543;28;96726;-74
2023/06/07 01:00:42;;;;;;;3.60;2.00;;;;;;;27.42;35.09;101937.03;5005533;28;97151;-74
2023/06/07 01:03:11;;;;;;;2.10;1.90;;;;;;;27.42;35.00;101931.53;5003502;28;98561;-73
2023/06/07 01:05:38;;;;;;;2.85;2.10;;;;;;;27.42;34.54;101932.38;5002190;28;101400;-74
2023/06/07 01:08:04;;;;;;;2.60;1.80;;;;;;;27.42;34.88;101946.16;4994147;28;96904;-74
2023/06/07 01:10:31;;;;;;;2.22;1.90;;;;;;;27.41;34.98;101927.91;5003215;28;97263;-74
2023/06/07 01:13:02;;;;;;;2.53;1.95;;;;;;;27.42;35.04;101932.38;4993122;28;99136;-74
2023/06/07 01:15:29;;;;;;;3.17;1.95;;;;;;;27.40;35.16;101931.72;5002610;28;100398;-74
2023/06/07 01:17:58;;;;;;;2.75;1.95;;;;;;;27.43;34.94;101941.50;5006243;28;97762;-74
2023/06/07 01:20:26;;;;;;;3.15;2.00;;;;;;;27.41;35.00;101933.41;5005580;28;96922;-74
2023/06/07 01:22:58;;;;;;;2.00;1.80;;;;;;;27.42;34.81;101937.88;5003227;28;99298;-74
2023/06/07 01:25:25;;;;;;;2.20;1.83;;;;;;;27.40;34.88;101933.63;5004720;28;96883;-74
2023/06/07 01:27:53;;;;;;;3.17;1.90;;;;;;;27.40;34.90;101925.34;5006170;28;96891;-74
2023/06/07 01:30:21;;;;;;;3.83;2.30;;;;;;;27.40;35.13;101925.34;5005423;28;96970;-74
2023/06/07 01:32:49;;;;;;;2.10;1.90;;;;;;;27.39;35.02;101921.72;5006438;28;98090;-74
2023/06/07 01:35:17;;;;;;;2.20;1.90;;;;;;;27.39;34.90;101920.88;4997049;28;97269;-74
2023/06/07 01:37:46;;;;;;;3.33;1.90;;;;;;;27.40;35.03;101933.63;5003329;28;96819;-74
2023/06/07 01:40:14;;;;;;;2.88;1.83;;;;;;;27.39;34.96;101931.91;4976375;28;97376;-74
2023/06/07 01:42:41;;;;;;;2.22;1.90;;;;;;;27.38;34.86;101921.91;5006297;28;97243;-74
2023/06/07 01:45:09;;;;;;;2.00;1.80;;;;;;;27.39;34.96;101923.63;5019618;28;97868;-74
2023/06/07 01:47:36;;;;;;;2.13;1.80;;;;;;;27.38;34.87;101921.91;5006921;28;96921;-74
2023/06/07 01:50:04;;;;;;;2.08;1.75;;;;;;;27.38;34.87;101921.91;5006621;28;96926;-74
2023/06/07 01:52:31;;;;;;;2.75;1.80;;;;;;;27.38;35.03;101924.69;4989792;28;99769;-74
2023/06/07 01:54:58;;;;;;;2.42;1.95;;;;;;;27.37;35.03;101923.81;5003500;28;97365;-74
2023/06/07 01:57:57;;;;;;;2.65;2.05;;;;;;;27.38;34.74;101922.78;5001946;28;96876;-74
2023/06/07 02:00:29;;;;;;;2.30;1.80;;;;;;;27.37;35.03;101925.72;4994430;28;96792;-74
2023/06/07 02:03:06;;;;;;;3.25;1.98;;;;;;;27.36;34.87;101919.34;5005056;28;98541;-74
2023/06/07 02:05:37;;;;;;;1.90;1.70;;;;;;;27.37;34.63;101920.22;5005247;28;97470;-74
2023/06/07 02:08:19;;;;;;;2.17;1.83;;;;;;;27.37;34.93;101917.44;5006598;28;96658;-74
2023/06/07 02:10:46;;;;;;;2.35;1.77;;;;;;;27.35;35.01;101911.28;5020029;28;96915;-74
2023/06/07 02:13:14;;;;;;;3.30;2.00;;;;;;;27.36;34.87;101918.50;5006306;28;97530;-74
2023/06/07 02:15:45;;;;;;;1.95;1.70;;;;;;;27.35;35.00;101920.41;5005864;28;97449;-74
2023/06/07 02:18:12;;;;;;;2.25;1.83;;;;;;;27.34;34.93;101913.19;5004087;28;98554;-74
2023/06/07 02:20:39;;;;;;;2.05;1.80;;;;;;;27.34;34.95;101917.84;5004059;28;97306;-74
2023/06/07 02:23:06;;;;;;;2.53;1.73;;;;;;;27.35;35.09;101922.31;5001472;28;97690;-74
2023/06/07 02:25:34;;;;;;;1.73;1.63;;;;;;;27.34;35.03;101915.06;5003519;28;97628;-74
2023/06/07 02:28:01;;;;;;;2.00;1.80;;;;;;;27.34;35.01;101915.94;4992143;28;96797;-74
2023/06/07 02:30:28;;;;;;;1.98;1.77;;;;;;;27.34;34.64;101912.31;5003334;28;96866;-74
2023/06/07 02:32:55;;;;;;;2.50;2.00;;;;;;;27.34;35.11;101917.84;5004569;28;97721;-74
2023/06/07 02:35:23;;;;;;;1.90;1.70;;;;;;;27.34;34.71;101921.44;5005775;28;96863;-74
2023/06/07 02:37:49;;;;;;;2.13;1.75;;;;;;;27.34;35.00;101918.69;5004281;28;97328;-74
2023/06/07 02:40:16;;;;;;;2.33;1.67;;;;;;;27.33;34.98;101918.88;5005961;28;97429;-74
2023/06/07 02:42:47;;;;;;;2.17;1.90;;;;;;;27.34;34.94;101912.31;5003962;28;99839;-74
2023/06/07 02:45:14;;;;;;;1.80;1.67;;;;;;;27.33;35.07;101914.22;5004981;28;99994;-74
2023/06/07 02:47:42;;;;;;;2.10;1.80;;;;;;;27.33;34.99;101910.59;5005173;28;97331;-74
2023/06/07 02:50:09;;;;;;;2.28;1.83;;;;;;;27.33;35.10;101919.75;4999407;28;97233;-74
2023/06/07 02:52:37;;;;;;;2.63;1.60;;;;;;;27.32;34.93;101912.50;5007936;28;100222;-74
2023/06/07 02:55:07;;;;;;;2.00;1.80;;;;;;;27.33;34.88;101916.13;5007065;28;97257;-74
2023/06/07 02:57:35;;;;;;;1.88;1.60;;;;;;;27.33;34.95;101922.50;5007588;28;97195;-73
2023/06/07 03:00:08;;;;;;;2.25;1.70;;;;;;;27.32;34.96;101923.53;4979301;28;96882;-74
2023/06/07 03:02:44;;;;;;;2.17;1.80;;;;;;;27.31;34.94;101918.22;5005505;28;97739;-74
2023/06/07 03:05:12;;;;;;;2.10;1.90;;;;;;;27.30;34.83;101922.88;5006587;28;100279;-74
2023/06/07 03:07:40;;;;;;;2.53;1.90;;;;;;;27.29;34.85;101921.19;5003666;28;97528;-74
2023/06/07 03:10:09;;;;;;;2.10;1.90;;;;;;;27.29;34.85;101921.19;5004229;28;97033;-74
2023/06/07 03:12:36;;;;;;;2.67;1.85;;;;;;;27.29;34.71;101923.94;5004833;28;98062;-74
2023/06/07 03:15:05;;;;;;;2.03;1.70;;;;;;;27.29;34.83;101918.41;5005829;28;97261;-74
2023/06/07 03:17:32;;;;;;;2.13;1.90;;;;;;;27.29;35.17;101920.31;4986365;28;96792;-74
2023/06/07 03:20:00;;;;;;;2.33;2.10;;;;;;;27.28;35.02;101924.97;4994879;28;98247;-74
2023/06/07 03:22:29;;;;;;;2.70;1.70;;;;;;;27.29;35.01;101923.06;5004178;28;99598;-74
2023/06/07 03:24:57;;;;;;;1.70;1.60;;;;;;;27.28;34.95;101919.47;4991767;28;100085;-74
2023/06/07 03:27:27;;;;;;;2.17;1.90;;;;;;;27.29;34.94;101928.59;4978215;28;97887;-73
2023/06/07 03:29:59;;;;;;;1.85;1.70;;;;;;;27.27;34.91;101925.19;5006502;28;97541;-74
2023/06/07 03:32:26;;;;;;;2.22;1.80;;;;;;;27.27;34.77;101922.41;5004760;28;97693;-74
2023/06/07 03:34:53;;;;;;;2.22;1.60;;;;;;;27.27;35.09;101925.19;5003805;28;97714;-74
2023/06/07 03:37:20;;;;;;;2.70;2.00;;;;;;;27.26;34.96;101927.06;4994340;28;98438;-74
2023/06/07 03:39:47;;;;;;;2.35;1.80;;;;;;;27.26;34.92;101927.06;5006393;28;96867;-75
2023/06/07 03:42:13;;;;;;;2.45;1.80;;;;;;;27.26;34.90;101924.31;4989175;28;100404;-74
2023/06/07 03:44:41;;;;;;;2.33;1.90;;;;;;;27.25;35.02;101925.38;5006642;28;98361;-73
2023/06/07 03:47:08;;;;;;;1.70;1.50;;;;;;;27.26;35.16;101917.94;5008509;28;96479;-73
2023/06/07 03:49:34;;;;;;;1.95;1.65;;;;;;;27.26;35.06;101923.47;5008560;28;97102;-73
2023/06/07 03:52:03;;;;;;;1.92;1.67;;;;;;;27.25;35.06;101922.59;4990345;28;98642;-73
2023/06/07 03:54:31;;;;;;;2.15;1.60;;;;;;;27.25;34.85;101919.00;4990341;28;98814;-73
2023/06/07 03:57:00;;;;;;;1.77;1.63;;;;;;;27.25;35.01;101913.47;5005176;28;96835;-74
2023/06/07 03:59:29;;;;;;;1.85;1.75;;;;;;;27.25;35.07;101916.25;5019982;28;97003;-73
2023/06/07 04:01:57;;;;;;;2.00;1.50;;;;;;;27.25;34.96;101906.06;4990711;28;97401;-73
2023/06/07 04:04:27;;;;;;;2.08;1.70;;;;;;;27.24;34.95;101915.38;4993063;28;98822;-73
2023/06/07 04:06:57;;;;;;;1.85;1.73;;;;;;;27.24;35.03;101920.91;4977696;28;96756;-73
2023/06/07 04:09:24;;;;;;;2.92;1.95;;;;;;;27.23;34.97;101922.81;5007805;28;96841;-73
2023/06/07 04:11:51;;;;;;;2.03;1.77;;;;;;;27.23;35.08;101925.56;5007972;28;96973;-73
2023/06/07 04:14:18;;;;;;;2.17;1.63;;;;;;;27.23;34.91;101935.75;5005364;28;99668;-73
2023/06/07 04:16:45;;;;;;;3.30;1.77;;;;;;;27.23;34.92;101949.53;4992152;28;96738;-73
2023/06/07 04:19:13;;;;;;;1.77;1.67;;;;;;;27.23;35.22;101932.97;5006463;28;96840;-73
2023/06/07 04:21:40;;;;;;;1.98;1.70;;;;;;;27.23;35.16;101933.84;5005913;28;98959;-73
2023/06/07 04:24:08;;;;;;;1.85;1.60;;;;;;;27.22;34.74;101923.84;5005922;28;97660;-73
2023/06/07 04:26:35;;;;;;;1.73;1.60;;;;;;;27.22;35.00;101929.38;5006432;28;96797;-73
2023/06/07 04:29:04;;;;;;;2.20;1.95;;;;;;;27.22;34.86;101923.84;5006383;28;97543;-74
2023/06/07 04:31:35;;;;;;;2.65;1.88;;;;;;;27.22;34.91;101923.00;5006215;28;99584;-74
2023/06/07 04:34:04;;;;;;;2.20;1.90;;;;;;;27.21;34.96;101930.41;4991354;28;99151;-73
2023/06/07 04:36:37;;;;;;;2.03;1.63;;;;;;;27.22;34.88;101925.75;5006062;28;96778;-74
2023/06/07 04:39:09;;;;;;;1.80;1.55;;;;;;;27.21;34.86;101922.13;5007108;28;97986;-74
2023/06/07 04:41:40;;;;;;;2.42;1.58;;;;;;;27.21;34.77;101935.94;5005956;28;98681;-73
2023/06/07 04:44:07;;;;;;;2.60;1.88;;;;;;;27.21;35.33;101930.41;5001996;28;96853;-73
2023/06/07 04:46:39;;;;;;;1.88;1.70;;;;;;;27.21;34.88;101930.41;4986222;28;97374;-73
2023/06/07 04:49:11;;;;;;;2.00;1.80;;;;;;;27.22;35.10;101942.31;4988620;28;96782;-73
2023/06/07 04:51:38;;;;;;;1.90;1.55;;;;;;;27.22;34.86;101945.06;5003346;28;97455;-74
2023/06/07 04:54:06;;;;;;;2.20;1.90;;;;;;;27.21;34.99;101955.22;5005304;28;97669;-74
2023/06/07 04:56:40;;;;;;;2.00;1.65;;;;;;;27.20;34.86;101948.00;4995524;28;97776;-73
2023/06/07 04:59:08;;;;;;;1.92;1.50;;;;;;;27.21;34.87;101946.09;5006049;28;98695;-73
2023/06/07 05:01:36;;;;;;;2.22;1.73;;;;;;;27.20;34.92;101948.00;4992395;28;100901;-73
2023/06/07 05:04:04;;;;;;;2.65;1.83;;;;;;;27.21;35.04;101941.44;5005241;28;99018;-73
2023/06/07 05:06:37;;;;;;;1.77;1.57;;;;;;;27.21;34.88;101944.19;5005658;28;97440;-74
2023/06/07 05:09:06;;;;;;;2.03;1.63;;;;;;;27.21;34.71;101955.22;5005720;28;97350;-74
2023/06/07 05:11:35;;;;;;;1.70;1.40;;;;;;;27.21;34.92;101946.09;5003602;28;98815;-74
2023/06/07 05:14:02;;;;;;;2.20;1.70;;;;;;;27.21;35.27;101944.19;5002841;28;97917;-74
2023/06/07 05:16:32;;;;;;;1.83;1.58;;;;;;;27.21;34.96;101941.44;5005448;28;97553;-73
2023/06/07 05:19:03;;;;;;;2.05;1.70;;;;;;;27.20;34.97;101934.22;4985849;28;96921;-73
2023/06/07 05:21:32;;;;;;;2.38;1.80;;;;;;;27.20;34.91;101934.22;5004259;28;97770;-74
2023/06/07 05:23:59;;;;;;;2.65;2.00;;;;;;;27.21;34.98;101946.97;4989709;28;100679;-74
2023/06/07 05:26:26;;;;;;;1.77;1.60;;;;;;;27.21;34.73;101946.97;5002469;28;98780;-73
2023/06/07 05:28:52;;;;;;;2.55;1.98;;;;;;;27.21;35.14;101944.19;5002755;28;97021;-74
2023/06/07 05:31:20;;;;;;;2.20;1.67;;;;;;;27.20;34.83;101942.50;5004658;28;99277;-73
2023/06/07 05:33:46;;;;;;;2.08;1.73;;;;;;;27.22;34.93;101950.56;5002212;28;100424;-73
2023/06/07 05:36:15;;;;;;;2.22;1.70;;;;;;;27.21;34.86;101946.97;5003837;28;96782;-73
2023/06/07 05:38:43;;;;;;;1.88;1.67;;;;;;;27.22;34.79;101950.56;4991446;28;97363;-74
2023/06/07 05:41:09;;;;;;;1.88;1.60;;;;;;;27.22;34.97;101945.91;5005481;28;96930;-74
2023/06/07 05:43:37;;;;;;;1.98;1.67;;;;;;;27.22;34.96;101953.34;4998531;28;101041;-74
2023/06/07 05:46:05;;;;;;;1.85;1.52;;;;;;;27.22;34.67;101947.81;5005806;28;96707;-74
2023/06/07 05:48:32;;;;;;;2.20;1.50;;;;;;;27.22;34.97;101951.44;5005483;28;96768;-73
2023/06/07 05:50:59;;;;;;;1.50;1.30;;;;;;;27.22;34.84;101956.94;5005692;28;96890;-73
2023/06/07 05:53:26;;;;;;;1.50;1.38;;;;;;;27.23;35.02;101957.81;5007360;28;97283;-74
2023/06/07 05:55:53;;;;;;;1.90;1.48;;;;;;;27.23;34.76;101958.66;5007110;28;96783;-73
2023/06/07 05:58:20;;;;;;;2.15;1.65;;;;;;;27.22;34.74;101967.97;5005487;28;96898;-74
2023/06/07 06:00:47;;;;;;;3.13;1.60;;;;;;;27.22;34.71;101956.94;5007076;28;97156;-73
2023/06/07 06:03:17;;;;;;;2.20;1.58;;;;;;;27.23;34.99;101960.56;5004858;28;97118;-74
2023/06/07 06:05:44;;;;;;;2.17;1.70;;;;;;;27.23;34.86;101960.56;4981618;28;96738;-73
2023/06/07 06:08:12;;;;;;;1.80;1.63;;;;;;;27.21;34.76;101960.75;5006795;28;96650;-73
2023/06/07 06:10:39;;;;;;;2.13;1.67;;;;;;;27.23;34.97;101966.06;5005135;28;98598;-73
2023/06/07 06:13:05;;;;;;;1.92;1.58;;;;;;;27.23;34.92;101966.94;5006821;28;97632;-73
2023/06/07 06:15:32;;;;;;;1.52;1.40;;;;;;;27.23;35.07;101971.59;5006545;28;97698;-72
2023/06/07 06:17:58;;;;;;;1.83;1.63;;;;;;;27.23;34.79;101966.06;5005551;28;97017;-73
2023/06/07 06:20:25;;;;;;;1.73;1.50;;;;;;;27.23;34.96;101966.06;5006375;28;96751;-73
2023/06/07 06:22:52;;;;;;;2.20;2.00;;;;;;;27.22;35.20;101959.72;5006494;28;97326;-73
2023/06/07 06:25:18;;;;;;;1.80;1.58;;;;;;;27.22;34.86;101962.47;5007203;28;96793;-73
2023/06/07 06:27:45;;;;;;;2.10;1.50;;;;;;;27.22;34.86;101959.72;5010199;28;97144;-73
2023/06/07 06:30:12;;;;;;;1.73;1.50;;;;;;;27.23;34.82;101966.94;4997691;28;101964;-73
2023/06/07 06:32:39;;;;;;;1.75;1.33;;;;;;;27.23;35.05;101971.59;5010573;28;96666;-73
2023/06/07 06:35:06;;;;;;;1.60;1.50;;;;;;;27.24;34.75;101978.81;5009630;28;96571;-73
2023/06/07 06:37:32;;;;;;;2.00;1.80;;;;;;;27.22;34.99;101984.53;5010763;28;96954;-73
2023/06/07 06:39:59;;;;;;;1.83;1.50;;;;;;;27.23;34.73;102002.78;5007261;28;96885;-73
2023/06/07 06:42:25;;;;;;;2.05;1.55;;;;;;;27.24;34.72;101998.13;5008273;28;96838;-73
2023/06/07 06:45:08;;;;;;;1.98;1.48;;;;;;;27.22;34.67;101995.56;5013252;27;97491;-73
2023/06/07 06:47:36;;;;;;;1.92;1.38;;;;;;;27.23;34.80;101994.50;5006811;28;97209;-73
2023/06/07 06:50:03;;;;;;;1.70;1.50;;;;;;;27.23;34.84;102010.22;5008824;28;97026;-73
2023/06/07 06:52:43;;;;;;;1.83;1.60;;;;;;;27.23;34.75;102013.81;4993235;28;97041;-73
2023/06/07 06:55:10;;;;;;;2.42;1.70;;;;;;;27.23;34.86;102010.22;5020480;27;96861;-73
2023/06/07 06:57:46;;;;;;;1.92;1.70;;;;;;;27.23;34.80;102011.06;5004137;28;96723;-74
2023/06/07 07:00:13;;;;;;;1.85;1.42;;;;;;;27.22;34.88;102005.75;5007014;28;96969;-74
2023/06/07 07:02:40;;;;;;;1.50;1.40;;;;;;;27.23;34.79;102001.94;4991923;28;96726;-74
2023/06/07 07:05:07;;;;;;;3.60;1.60;;;;;;;27.22;35.19;102003.84;5008291;28;98539;-74
2023/06/07 07:07:34;;;;;;;1.83;1.60;;;;;;;27.23;34.84;102013.81;5007911;28;97158;-74
2023/06/07 07:10:02;;;;;;;1.88;1.52;;;;;;;27.23;34.84;102000.03;5009756;28;96860;-74
2023/06/07 07:12:29;;;;;;;1.92;1.70;;;;;;;27.23;34.59;102000.03;5009291;28;96641;-74
2023/06/07 07:14:55;;;;;;;2.03;1.60;;;;;;;27.23;34.81;102002.78;5008541;28;96704;-73
2023/06/07 07:17:22;;;;;;;1.50;1.38;;;;;;;27.23;34.90;102004.69;5008926;28;96815;-74
2023/06/07 07:19:49;;;;;;;1.60;1.48;;;;;;;27.23;34.61;102005.53;5009428;28;96935;-73
2023/06/07 07:22:15;;;;;;;1.70;1.60;;;;;;;27.23;34.73;102005.53;5008397;28;96967;-74
2023/06/07 07:24:42;;;;;;;2.50;1.30;;;;;;;27.25;34.91;102007.25;5009003;28;96747;-74
2023/06/07 07:27:10;;;;;;;2.25;1.50;;;;;;;27.23;34.87;102016.56;5010682;28;97165;-74
2023/06/07 07:29:36;;;;;;;1.90;1.33;;;;;;;27.23;34.64;102022.09;5007274;28;97477;-74
2023/06/07 07:32:04;;;;;;;1.50;1.40;;;;;;;27.23;34.81;102013.81;5008491;28;97423;-74
2023/06/07 07:34:32;;;;;;;2.38;1.50;;;;;;;27.23;34.72;102016.56;5007656;28;97233;-75
2023/06/07 07:37:02;;;;;;;2.38;1.52;;;;;;;27.23;34.72;102016.56;5004183;28;97227;-76
2023/06/07 07:39:29;;;;;;;1.88;1.63;;;;;;;27.24;34.97;102017.44;5007409;28;97774;-76
2023/06/07 07:41:55;;;;;;;1.70;1.45;;;;;;;27.24;35.21;102000.88;5006772;28;97434;-75
2023/06/07 07:44:22;;;;;;;1.70;1.50;;;;;;;27.25;34.74;102015.53;5008156;28;96765;-77
2023/06/07 07:46:49;;;;;;;1.95;1.50;;;;;;;27.26;34.79;102014.47;5008269;28;97178;-76
2023/06/07 07:49:15;;;;;;;2.38;1.77;;;;;;;27.25;34.69;102018.28;5005537;28;97123;-76
2023/06/07 07:51:42;;;;;;;2.40;1.50;;;;;;;27.25;34.25;102013.63;5007461;28;97637;-76
2023/06/07 07:54:08;;;;;;;2.03;1.70;;;;;;;27.26;34.85;102022.75;5008313;28;96866;-76
2023/06/07 07:56:35;;;;;;;2.42;1.65;;;;;;;27.26;34.88;102023.63;5007657;28;97109;-75
2023/06/07 07:59:01;;;;;;;1.95;1.58;;;;;;;27.27;34.77;102030.84;5007541;28;100716;-76
2023/06/07 08:01:28;;;;;;;2.58;1.50;;;;;;;27.27;34.67;102033.59;5008725;28;97023;-76
2023/06/07 08:03:55;;;;;;;2.13;1.77;;;;;;;27.28;34.90;102027.03;5006690;28;97801;-76
2023/06/07 08:06:23;;;;;;;1.67;1.40;;;;;;;27.27;34.74;102022.56;5008826;28;96986;-75
2023/06/07 08:08:49;;;;;;;1.85;1.40;;;;;;;27.28;34.92;102032.56;5009000;28;98284;-76
2023/06/07 08:11:16;;;;;;;2.00;1.70;;;;;;;27.29;34.65;102031.50;5006865;28;96827;-76
2023/06/07 08:13:43;;;;;;;1.70;1.60;;;;;;;27.28;34.97;102023.44;5009083;28;96814;-76
2023/06/07 08:16:09;;;;;;;1.75;1.58;;;;;;;27.28;34.77;102024.28;4980838;28;97028;-76
2023/06/07 08:18:36;;;;;;;2.85;1.50;;;;;;;27.29;34.95;102019.63;5008318;28;96633;-76
2023/06/07 08:21:03;;;;;;;2.85;1.48;;;;;;;27.29;34.89;102014.09;5008635;28;96667;-76
2023/06/07 08:23:30;;;;;;;2.15;1.50;;;;;;;27.30;34.89;102021.34;4990549;28;96733;-75
2023/06/07 08:25:58;;;;;;;2.75;1.77;;;;;;;27.28;34.73;102024.28;5003311;28;96865;-76
2023/06/07 08:28:25;;;;;;;2.00;1.50;;;;;;;27.28;34.65;102013.25;5006657;28;98830;-76
2023/06/07 08:30:51;;;;;;;2.38;1.65;;;;;;;27.28;34.84;102007.72;5006825;28;97228;-75
2023/06/07 08:33:18;;;;;;;2.17;1.50;;;;;;;27.28;34.57;102016.00;5008429;28;96944;-76
2023/06/07 08:35:44;;;;;;;1.83;1.60;;;;;;;27.29;34.61;102006.69;5008618;28;97013;-76
2023/06/07 08:38:11;;;;;;;1.73;1.58;;;;;;;27.30;34.61;102007.53;4990309;28;100032;-76
2023/06/07 08:40:38;;;;;;;2.72;1.50;;;;;;;27.29;34.77;102014.09;5008311;28;97045;-76
2023/06/07 08:43:07;;;;;;;1.95;1.52;;;;;;;27.30;34.56;102019.44;5009333;28;97001;-75
2023/06/07 08:45:33;;;;;;;2.75;1.50;;;;;;;27.31;34.39;102025.81;5007404;28;96702;-75
2023/06/07 08:48:06;;;;;;;3.42;1.80;;;;;;;27.32;34.69;102036.66;5006567;28;96826;-75
2023/06/07 08:50:33;;;;;;;2.25;1.65;;;;;;;27.30;34.66;102027.72;4994588;28;97334;-75
2023/06/07 08:53:05;;;;;;;2.33;1.65;;;;;;;27.30;34.70;102030.47;5006005;28;96713;-75
2023/06/07 08:55:33;;;;;;;2.30;1.63;;;;;;;27.31;34.73;102036.84;5008157;28;96608;-76
2023/06/07 08:58:01;;;;;;;1.60;1.40;;;;;;;27.30;34.51;102032.38;5007724;28;97712;-75
2023/06/07 09:00:28;;;;;;;4.05;1.60;;;;;;;27.32;34.73;102035.78;5008238;28;96960;-76
2023/06/07 09:02:55;;;;;;;2.38;1.70;;;;;;;27.30;34.52;102030.47;4990076;28;96769;-75
2023/06/07 09:05:22;;;;;;;1.67;1.48;;;;;;;27.32;34.65;102024.75;5007049;28;97480;-76
2023/06/07 09:07:50;;;;;;;1.58;1.42;;;;;;;27.31;34.64;102028.56;5005736;28;96735;-76
2023/06/07 09:10:20;;;;;;;1.90;1.70;;;;;;;27.32;34.79;102030.28;5008254;28;98192;-75
2023/06/07 09:12:48;;;;;;;2.33;1.75;;;;;;;27.32;34.48;102028.38;5007504;28;96687;-76
2023/06/07 09:15:19;;;;;;;2.15;1.42;;;;;;;27.32;34.83;102025.63;5006447;28;97172;-75
2023/06/07 09:17:59;;;;;;;1.98;1.70;;;;;;;27.33;34.64;102023.72;5005636;28;97904;-75
2023/06/07 09:20:28;;;;;;;2.05;1.50;;;;;;;27.31;34.58;102023.03;5006969;28;96940;-76
2023/06/07 09:23:19;;;;;;;2.15;1.67;;;;;;;27.31;34.50;102028.56;5004849;28;96959;-76
2023/06/07 09:25:53;;;;;;;5.53;1.85;;;;;;;27.32;34.69;102030.28;5006102;28;96848;-75
2023/06/07 09:28:20;;;;;;;2.42;1.60;;;;;;;27.28;34.42;102013.25;5005889;28;98348;-75
2023/06/07 09:30:55;;;;;;;1.80;1.40;;;;;;;27.31;34.53;102017.53;5007784;28;97604;-75
2023/06/07 09:33:29;;;;;;;2.13;1.73;;;;;;;27.29;34.60;102023.25;4989378;28;96891;-75
2023/06/07 09:36:02;;;;;;;2.95;1.60;;;;;;;27.30;34.78;102018.56;5006498;28;97155;-76
2023/06/07 09:38:29;;;;;;;2.22;1.60;;;;;;;27.30;34.66;102021.34;5007117;28;97437;-75
2023/06/07 09:41:00;;;;;;;3.53;1.98;;;;;;;27.31;34.58;102025.81;5006236;28;100616;-76
2023/06/07 09:43:46;;;;;;;4.72;1.80;;;;;;;27.30;34.76;102027.72;5005299;28;97556;-76
2023/06/07 09:46:14;;;;;;;2.00;1.77;;;;;;;27.29;34.85;102030.66;5005943;28;97055;-75
2023/06/07 09:48:51;;;;;;;2.78;1.55;;;;;;;27.29;34.58;102023.25;5005362;28;97676;-76
2023/06/07 09:51:20;;;;;;;1.90;1.65;;;;;;;27.29;34.66;102025.13;5006705;28;97110;-75
2023/06/07 09:53:51;;;;;;;2.88;1.75;;;;;;;27.31;34.61;102025.81;5002339;28;96815;-75
2023/06/07 09:56:21;;;;;;;2.50;1.60;;;;;;;27.30;34.75;102013.06;5005716;28;96975;-76
2023/06/07 09:58:49;;;;;;;2.00;1.70;;;;;;;27.29;34.79;102014.97;5004788;28;99117;-76
2023/06/07 10:01:34;;;;;;;1.98;1.35;;;;;;;27.32;34.77;102019.25;5006467;28;96752;-76
2023/06/07 10:04:02;;;;;;;2.72;1.75;;;;;;;27.30;34.59;102013.06;5005733;28;96889;-75
2023/06/07 10:06:33;;;;;;;2.60;1.70;;;;;;;27.31;34.82;102020.28;5006113;28;97160;-75
2023/06/07 10:09:03;;;;;;;2.80;1.70;;;;;;;27.31;34.53;102017.53;4987275;28;97141;-76
2023/06/07 10:11:34;;;;;;;2.53;1.75;;;;;;;27.30;34.55;102016.66;4989324;28;99369;-76
2023/06/07 10:14:06;;;;;;;2.42;1.63;;;;;;;27.32;34.64;102016.47;4999314;28;96926;-75
2023/06/07 10:16:37;;;;;;;2.78;1.45;;;;;;;27.32;34.67;102013.72;5005578;28;96999;-76
2023/06/07 10:19:10;;;;;;;2.72;1.88;;;;;;;27.32;34.55;102013.72;4988577;28;97707;-76
2023/06/07 10:21:42;;;;;;;2.22;1.30;;;;;;;27.31;34.52;102007.34;5007249;28;97503;-76
2023/06/07 10:24:13;;;;;;;1.90;1.50;;;;;;;27.30;34.64;102005.63;4983704;28;97279;-75
2023/06/07 10:26:52;;;;;;;2.25;1.60;;;;;;;27.31;34.70;102006.50;5005763;28;97061;-76
2023/06/07 10:29:36;;;;;;;2.45;1.60;;;;;;;27.30;34.67;102008.41;5005081;28;98121;-75
2023/06/07 10:32:30;;;;;;;1.83;1.45;;;;;;;27.30;34.62;102010.31;5004252;28;97353;-75
2023/06/07 10:34:58;;;;;;;2.47;1.58;;;;;;;27.28;34.63;102004.13;5001373;28;97417;-75
2023/06/07 10:37:30;;;;;;;1.80;1.38;;;;;;;27.28;34.70;101996.69;5005167;28;97127;-75
2023/06/07 10:39:58;;;;;;;2.08;1.48;;;;;;;27.29;34.60;101992.03;5006310;28;100233;-75
2023/06/07 10:42:25;;;;;;;3.80;1.60;;;;;;;27.29;34.71;101986.53;4992160;28;97163;-75
2023/06/07 10:44:54;;;;;;;2.20;1.77;;;;;;;27.30;34.72;101982.72;5008598;28;96563;-76
2023/06/07 10:47:21;;;;;;;2.67;1.73;;;;;;;27.29;34.68;101969.97;5008353;28;96834;-75
2023/06/07 10:49:49;;;;;;;2.30;1.63;;;;;;;27.30;34.62;101966.16;5010615;28;96865;-76
2023/06/07 10:52:16;;;;;;;2.05;1.58;;;;;;;27.30;34.58;101960.66;4992399;28;97574;-75
2023/06/07 10:54:44;;;;;;;1.85;1.60;;;;;;;27.30;34.65;101972.53;5008967;28;96907;-76
2023/06/07 10:57:11;;;;;;;1.80;1.40;;;;;;;27.29;34.63;101969.97;5008007;28;96994;-75
2023/06/07 10:59:39;;;;;;;3.05;1.55;;;;;;;27.30;34.78;101974.44;5004983;28;96684;-74
2023/06/07 11:02:19;;;;;;;4.13;1.73;;;;;;;27.31;34.70;101976.16;4987706;28;97868;-75
2023/06/07 11:04:50;;;;;;;3.78;1.65;;;;;;;27.30;34.64;101971.69;5003157;28;96805;-75
2023/06/07 11:07:22;;;;;;;3.05;1.67;;;;;;;27.29;34.70;101969.97;5005847;28;97263;-75
2023/06/07 11:10:09;;;;;;;2.58;1.70;;;;;;;27.30;34.68;101972.53;5006769;28;97527;-75
2023/06/07 11:12:44;;;;;;;2.78;1.63;;;;;;;27.29;34.63;101972.72;5006961;28;98671;-75
2023/06/07 11:15:17;;;;;;;2.60;1.30;;;;;;;27.30;34.76;101982.72;5007949;28;97186;-75
2023/06/07 11:17:55;;;;;;;3.00;1.30;;;;;;;27.30;34.72;101974.44;5008368;28;96814;-76
2023/06/07 11:20:51;;;;;;;2.78;1.50;;;;;;;27.30;34.65;101972.53;5008831;28;97216;-75
2023/06/07 11:23:31;;;;;;;1.77;1.43;;;;;;;27.29;34.73;101976.34;5000688;28;97618;-75
2023/06/07 11:26:04;;;;;;;2.38;1.60;;;;;;;27.30;34.64;101982.72;4997125;28;97103;-75
2023/06/07 11:28:32;;;;;;;2.28;1.52;;;;;;;27.30;34.94;101972.53;5008380;28;96966;-76
2023/06/07 11:31:00;;;;;;;2.00;1.50;;;;;;;27.32;34.69;101975.09;5007024;28;97399;-75
2023/06/07 11:33:27;;;;;;;1.70;1.30;;;;;;;27.33;34.75;101971.28;5008097;28;97601;-75